Home > Products > Valid Products > TAF

000
FTUS45 KTFX 040532
TAFCTB
TAF
KCTB 040532Z 0406/0506 31011KT P6SM SKC
     FM041100 33015KT P6SM SCT100 SCT200
     FM042000 01011KT P6SM VCTS SCT070CB BKN110 PROB30 0422/0502
      VRB28G40KT -TSRA BKN050CB
     FM050200 03015KT P6SM -SHRA SCT030 BKN050=



000
FTUS45 KTFX 040532
TAFHVR
TAF
KHVR 040532Z 0406/0506 28007KT P6SM SKC
     FM041300 31015KT P6SM SCT100 SCT200
     FM042100 35011KT P6SM VCTS SCT070CB BKN110 PROB30 0423/0503
      VRB28G40KT -TSRA BKN060CB
     FM050300 02015KT P6SM -SHRA SCT035 BKN060=



000
FTUS45 KTFX 040532
TAFHLN
TAF
KHLN 040532Z 0406/0506 26007KT P6SM SKC
     FM041600 31011KT P6SM SCT100 SCT200
     FM050000 36011KT P6SM VCTS SCT080CB BKN120=



000
FTUS45 KTFX 040532
TAFLWT
TAF
KLWT 040532Z 0406/0506 21007KT P6SM SKC
     FM041500 31015KT P6SM SCT100 SCT200
     FM042200 36011KT P6SM VCTS SCT080CB BKN120 PROB30 0500/0506
      VRB28G40KT -TSRA BKN070CB=



000
FTUS45 KTFX 040532
TAFGTF
TAF
KGTF 040532Z 0406/0506 26008KT P6SM SKC
     FM041400 33011KT P6SM SCT100 SCT200
     FM042200 01011KT P6SM VCTS SCT080CB BKN120 PROB30 0500/0504
      VRB28G40KT -TSRA BKN070CB
     FM050400 03015KT P6SM -SHRA SCT035 BKN060=



000
FTUS45 KTFX 040532
TAFBZN
TAF
KBZN 040532Z 0406/0506 VRB05KT P6SM SKC
     FM041800 31010KT P6SM SCT100 SCT200
     FM050300 04008KT P6SM VCTS SCT080CB BKN120=



000
FTUS45 KTFX 032339
TAFHVR
TAF
KHVR 032339Z 0400/0424 24008KT P6SM BKN250
     FM040200 14008KT P6SM SKC
     FM040900 24006KT P6SM SKC
     FM041200 29010KT P6SM SKC
     FM042000 35010KT P6SM SCT090=



000
FTUS45 KTFX 032339
TAFBZN
TAF
KBZN 032339Z 0400/0424 30007KT P6SM FEW100 BKN250
     FM040200 16006KT P6SM SKC
     FM041700 30008KT P6SM SCT100=



000
FTUS45 KTFX 032339
TAFHLN
TAF
KHLN 032339Z 0400/0424 31008KT P6SM FEW120 SCT250
     FM040200 28006KT P6SM SKC
     FM041000 VRB03KT P6SM SKC
     FM041700 30008KT P6SM SCT100
     FM042000 28012KT P6SM SCT100=



000
FTUS45 KTFX 032339
TAFCTB
TAF
KCTB 032339Z 0400/0424 29008KT P6SM SKC
     FM040300 VRB06KT P6SM SKC
     FM040900 32014KT P6SM SKC
     FM041900 36010KT P6SM SCT080
     FM042200 02012KT P6SM SCT080 BKN100 PROB30 0422/0424 VRB30G40KT
      -TSRA BKN050CB=



000
FTUS45 KTFX 032339
TAFLWT
TAF
KLWT 032339Z 0400/0424 VRB05KT P6SM FEW090 BKN250
     FM040200 13006KT P6SM SKC
     FM040900 20006KT P6SM SKC
     FM041500 29008KT P6SM SKC
     FM041900 34010KT P6SM SCT080=



000
FTUS45 KTFX 032339
TAFGTF
TAF
KGTF 032339Z 0400/0424 VRB05KT P6SM FEW100 SCT250
     FM040200 VRB05KT P6SM SKC
     FM040600 23010KT P6SM SKC
     FM041500 32006KT P6SM SKC
     FM041900 36010KT P6SM SCT090=



000
FTUS45 KTFX 031736
TAFLWT
TAF
KLWT 031736Z 0318/0418 09006KT P6SM SCT100
     FM040300 13006KT P6SM SKC=



000
FTUS45 KTFX 031736
TAFHVR
TAF
KHVR 031736Z 0318/0418 VRB06KT 6SM HZ SCT200
     FM032000 20008KT P6SM SCT080 SCT200
     FM040300 VRB06KT 3SM HZ SCT150=



000
FTUS45 KTFX 031736
TAFBZN
TAF
KBZN 031736Z 0318/0418 VRB05KT P6SM SCT100
     FM040200 VRB06KT P6SM SKC=



000
FTUS45 KTFX 031736
TAFHLN
TAF
KHLN 031736Z 0318/0418 VRB06KT P6SM FEW100
     FM040300 26007KT P6SM SKC=



000
FTUS45 KTFX 031736
TAFGTF
TAF
KGTF 031736Z 0318/0418 19010KT P6SM SCT100
     FM032000 26010KT P6SM SCT100 SCT200
     FM040300 22009KT P6SM SCT150=



000
FTUS45 KTFX 031736
TAFCTB
TAF
KCTB 031736Z 0318/0418 31011KT P6SM SCT180
     FM032000 24011KT P6SM FEW100 SCT200
     FM040300 26011KT P6SM SCT100
     FM041000 33012KT P6SM SCT200=



000
FTUS45 KTFX 031312 AAA
TAFHVR
TAF AMD
KHVR 031312Z 0313/0412 09006KT 2SM HZ SCT100
      TEMPO 0313/0317 3SM HZ
     FM031700 14007KT 6SM HZ FEW100 SCT250
     FM040300 22006KT P6SM SCT100=



000
FTUS45 KTFX 031120
TAFHLN
TAF
KHLN 031120Z 0312/0412 VRB05KT P6SM SKC
     FM031900 04007KT P6SM FEW100 SCT250
     FM040300 26007KT P6SM SKC=



000
FTUS45 KTFX 031120
TAFCTB
TAF
KCTB 031120Z 0312/0412 14007KT P6SM SCT100
     FM032000 24011KT P6SM FEW100 SCT250
     FM040300 26011KT P6SM SCT100=



000
FTUS45 KTFX 031120
TAFHVR
TAF
KHVR 031120Z 0312/0412 09006KT 5SM HZ SCT100
      TEMPO 0312/0316 3SM HZ
     FM031800 14007KT P6SM FEW100 SCT250
     FM040300 22006KT P6SM SCT100=



000
FTUS45 KTFX 031120
TAFHVR
TAF
KHVR 031120Z 0312/0412 09006KT 5SM HZ SCT100
      TEMPO 0312/0316 3SM HZ
     FM031800 14007KT P6SM FEW100 SCT250
     FM040300 22006KT P6SM SCT100=



000
FTUS45 KTFX 031120
TAFHLN
TAF
KHLN 031120Z 0312/0412 VRB05KT P6SM SKC
     FM031900 04007KT P6SM FEW100 SCT250
     FM040300 26007KT P6SM SKC=



000
FTUS45 KTFX 031120
TAFCTB
TAF
KCTB 031120Z 0312/0412 14007KT P6SM SCT100
     FM032000 24011KT P6SM FEW100 SCT250
     FM040300 26011KT P6SM SCT100=



000
FTUS45 KTFX 031120
TAFBZN
TAF
KBZN 031120Z 0312/0412 VRB05KT P6SM SKC
     FM031700 VRB05KT P6SM SCT100 SCT250
     FM040200 VRB06KT P6SM SKC=



000
FTUS45 KTFX 031120
TAFBZN
TAF
KBZN 031120Z 0312/0412 VRB05KT P6SM SKC
     FM031700 VRB05KT P6SM SCT100 SCT250
     FM040200 VRB06KT P6SM SKC=



000
FTUS45 KTFX 031120
TAFLWT
TAF
KLWT 031120Z 0312/0412 12007KT 5SM HZ SCT080 BKN120
     FM031800 09007KT P6SM SCT080 SCT250
     FM040300 14006KT P6SM SKC=



000
FTUS45 KTFX 031120
TAFLWT
TAF
KLWT 031120Z 0312/0412 12007KT 5SM HZ SCT080 BKN120
     FM031800 09007KT P6SM SCT080 SCT250
     FM040300 14006KT P6SM SKC=



000
FTUS45 KTFX 031120
TAFGTF
TAF
KGTF 031120Z 0312/0412 VRB06KT P6SM FEW100
     FM032000 21008KT P6SM FEW100 SCT250
     FM040300 22009KT P6SM SCT100=



000
FTUS45 KTFX 031120
TAFGTF
TAF
KGTF 031120Z 0312/0412 VRB06KT P6SM FEW100
     FM032000 21008KT P6SM FEW100 SCT250
     FM040300 22009KT P6SM SCT100=



000
FTUS45 KTFX 030520
TAFCTB
TAF
KCTB 030520Z 0306/0406 14007KT P6SM SCT100
     FM030800 VRB05KT P6SM SKC
     FM032000 24010KT P6SM FEW100 SCT250=



000
FTUS45 KTFX 030520
TAFHLN
TAF
KHLN 030520Z 0306/0406 VRB05KT P6SM SKC
     FM031900 04007KT P6SM FEW100 SCT250=



000
FTUS45 KTFX 030520
TAFGTF
TAF
KGTF 030520Z 0306/0406 08011KT P6SM SCT100
     FM031000 21006KT P6SM SKC
     FM032000 14008KT P6SM FEW100 SCT250=



000
FTUS45 KTFX 030520
TAFLWT
TAF
KLWT 030520Z 0306/0406 12007KT 5SM HZ SCT080
     FM031800 09007KT P6SM SCT080 SCT250=



000
FTUS45 KTFX 030520
TAFBZN
TAF
KBZN 030520Z 0306/0406 14007KT P6SM SKC
     FM030900 VRB05KT P6SM VCFG FEW010
     FM031500 VRB05KT P6SM SCT100 SCT250=



000
FTUS45 KTFX 030520
TAFHVR
TAF
KHVR 030520Z 0306/0406 13006KT 5SM HZ SCT100
     FM031800 14007KT P6SM FEW100 SCT250=



000
FTUS45 KTFX 030222 AAA
TAFLWT
TAF AMD
KLWT 030222Z 0302/0324 VRB05KT 5SM HZ FEW025
     FM031200 VRB05KT 5SM HZ FEW025
     FM031700 VRB06KT P6SM SCT080 BKN250=



000
FTUS45 KTFX 030221 AAA
TAFHVR
TAF AMD
KHVR 030221Z 0302/0324 13006KT 5SM HZ SKC
     FM031800 16007KT P6SM SCT090 BKN250=



000
FTUS45 KTFX 022320
TAFLWT
TAF
KLWT 022320Z 0300/0324 VRB05KT 6SM HZ FEW070
     FM030200 12005KT 6SM HZ FEW100
     FM031200 VRB05KT P6SM SKC
     FM031700 VRB06KT P6SM SCT080 BKN250=



000
FTUS45 KTFX 022320
TAFHVR
TAF
KHVR 022320Z 0300/0324 VRB05KT 6SM HZ FEW080
     FM030200 13006KT 6SM HZ SKC
     FM031800 16007KT P6SM SCT090 BKN250=



000
FTUS45 KTFX 022320
TAFCTB
TAF
KCTB 022320Z 0300/0324 15006KT P6SM SCT090
     FM030700 23005KT P6SM SKC
     FM031500 16005KT P6SM BKN250
     FM031800 18008KT P6SM SCT100 BKN250
     FM032100 25010KT P6SM FEW100=



000
FTUS45 KTFX 022320
TAFBZN
TAF
KBZN 022320Z 0300/0324 VRB05KT P6SM SKC
     FM031700 VRB04KT P6SM SCT100 SCT250=



000
FTUS45 KTFX 022320
TAFHLN
TAF
KHLN 022320Z 0300/0324 01008KT P6SM FEW120
     FM030300 VRB04KT P6SM SKC
     FM031500 VRB04KT P6SM FEW100 BKN250
     FM032200 02008KT P6SM FEW100=



000
FTUS45 KTFX 022320
TAFGTF
TAF
KGTF 022320Z 0300/0324 08010G15KT P6SM SCT100
     FM031000 21006KT P6SM SKC
     FM031500 21006KT P6SM BKN250
     FM031800 16006KT P6SM SCT100 BKN250
     FM032200 VRB06KT P6SM FEW100=



000
FTUS45 KTFX 021731
TAFHVR
TAF
KHVR 021731Z 0218/0318 05006KT P6SM SCT060
     FM030200 13006KT P6SM SKC=



000
FTUS45 KTFX 021731
TAFCTB
TAF
KCTB 021731Z 0218/0318 VRB06KT P6SM SCT100
     FM022300 13006KT P6SM SCT070 BKN100
     FM030800 16008KT P6SM SCT100=



000
FTUS45 KTFX 021731
TAFLWT
TAF
KLWT 021731Z 0218/0318 36006KT P6SM SCT070
     FM030500 14006KT P6SM SKC=



000
FTUS45 KTFX 021731
TAFHLN
TAF
KHLN 021731Z 0218/0318 VRB06KT P6SM SCT070
     FM030200 VRB06KT P6SM SCT200=



000
FTUS45 KTFX 021731
TAFBZN
TAF
KBZN 021731Z 0218/0318 VRB05KT 6SM HZ SKC
     FM022000 VRB05KT P6SM SCT080
     FM030200 15006KT P6SM SCT100=



000
FTUS45 KTFX 021731
TAFGTF
TAF
KGTF 021731Z 0218/0318 02006KT P6SM SCT090
     FM030300 09006KT P6SM SCT120
     FM030800 20007KT P6SM SKC=



000
FTUS45 KTFX 021731
TAFHVR
TAF
KHVR 021731Z 0218/0318 05006KT P6SM SCT060
     FM030200 13006KT P6SM SKC=



000
FTUS45 KTFX 021120
TAFLWT
TAF
KLWT 021120Z 0212/0312 VRB06KT P6SM SCT080
     FM030200 08006KT P6SM SKC=



000
FTUS45 KTFX 021120
TAFGTF
TAF
KGTF 021120Z 0212/0312 03009KT P6SM SCT070
      TEMPO 0300/0304 BKN070
     FM030600 20007KT P6SM SKC=



000
FTUS45 KTFX 021120
TAFHLN
TAF
KHLN 021120Z 0212/0312 33006KT P6SM SCT070
     FM021500 04006KT P6SM SCT070
     FM030200 VRB06KT P6SM SCT070 SCT200=



000
FTUS45 KTFX 021120
TAFBZN
TAF
KBZN 021120Z 0212/0312 VRB05KT P6SM SKC
     FM021700 VRB05KT P6SM SCT080
     FM030200 12007KT P6SM SCT100=



000
FTUS45 KTFX 021120
TAFBZN
TAF
KBZN 021120Z 0212/0312 VRB05KT P6SM SKC
     FM021700 VRB05KT P6SM SCT080
     FM030200 12007KT P6SM SCT100=



000
FTUS45 KTFX 021120
TAFHVR
TAF
KHVR 021120Z 0212/0312 VRB06KT P6SM SKC
     FM021700 32008KT P6SM SCT080
     FM030200 VRB06KT P6SM SKC=



000
FTUS45 KTFX 021120
TAFHLN
TAF
KHLN 021120Z 0212/0312 33006KT P6SM SCT070
     FM021500 04006KT P6SM SCT070
     FM030200 VRB06KT P6SM SCT070 SCT200=



000
FTUS45 KTFX 021120
TAFGTF
TAF
KGTF 021120Z 0212/0312 03009KT P6SM SCT070
      TEMPO 0300/0304 BKN070
     FM030600 20007KT P6SM SKC=



000
FTUS45 KTFX 021120
TAFHVR
TAF
KHVR 021120Z 0212/0312 VRB06KT P6SM SKC
     FM021700 32008KT P6SM SCT080
     FM030200 VRB06KT P6SM SKC=



000
FTUS45 KTFX 021120
TAFCTB
TAF
KCTB 021120Z 0212/0312 VRB06KT P6SM SCT100
     FM022300 13006KT P6SM SCT070 BKN100
     FM030800 16008KT P6SM SCT100=



000
FTUS45 KTFX 021120
TAFLWT
TAF
KLWT 021120Z 0212/0312 VRB06KT P6SM SCT080
     FM030200 08006KT P6SM SKC=



000
FTUS45 KTFX 021120
TAFCTB
TAF
KCTB 021120Z 0212/0312 VRB06KT P6SM SCT100
     FM022300 13006KT P6SM SCT070 BKN100
     FM030800 16008KT P6SM SCT100=



000
FTUS45 KTFX 020531
TAFHLN
TAF
KHLN 020531Z 0206/0306 33006KT P6SM SKC
     FM021500 04006KT P6SM SCT090 SCT200
     FM030200 VRB06KT P6SM SCT200=



000
FTUS45 KTFX 020531
TAFBZN
TAF
KBZN 020531Z 0206/0306 VRB05KT P6SM SKC
     FM021700 VRB05KT P6SM SCT080
     FM030200 12006KT P6SM SKC=



000
FTUS45 KTFX 020531
TAFCTB
TAF
KCTB 020531Z 0206/0306 35008KT P6SM SCT100=



000
FTUS45 KTFX 020531
TAFGTF
TAF
KGTF 020531Z 0206/0306 03009KT P6SM BKN070
     FM021000 10004KT P6SM SCT200
     FM021500 24008KT P6SM SCT080 SCT200
     FM030000 23006KT P6SM SKC=



000
FTUS45 KTFX 020531
TAFLWT
TAF
KLWT 020531Z 0206/0306 VRB06KT P6SM BKN070
     FM020800 VRB06KT P6SM SCT100
     FM022200 08006KT P6SM SKC=



000
FTUS45 KTFX 020531
TAFHVR
TAF
KHVR 020531Z 0206/0306 31005KT P6SM SKC
     FM021700 32008KT P6SM SCT080
     FM030200 VRB06KT P6SM SKC=



000
FTUS45 KTFX 020531
TAFCTB
TAF
KCTB 020531Z 0206/0306 35008KT P6SM SCT100=



000
FTUS45 KTFX 020531
TAFGTF
TAF
KGTF 020531Z 0206/0306 03009KT P6SM BKN070
     FM021000 10004KT P6SM SCT200
     FM021500 24008KT P6SM SCT080 SCT200
     FM030000 23006KT P6SM SKC=



000
FTUS45 KTFX 020531
TAFLWT
TAF
KLWT 020531Z 0206/0306 VRB06KT P6SM BKN070
     FM020800 VRB06KT P6SM SCT100
     FM022200 08006KT P6SM SKC=



000
FTUS45 KTFX 020531
TAFHVR
TAF
KHVR 020531Z 0206/0306 31005KT P6SM SKC
     FM021700 32008KT P6SM SCT080
     FM030200 VRB06KT P6SM SKC=



000
FTUS45 KTFX 020356 AAB
TAFGTF
TAF AMD
KGTF 020356Z 0204/0224 03010KT P6SM BKN070
     FM021000 33006KT P6SM BKN070
     FM021500 06005KT P6SM SCT080=



000
FTUS45 KTFX 020356 AAB
TAFGTF
TAF AMD
KGTF 020356Z 0204/0224 03010KT P6SM BKN070
     FM021000 33006KT P6SM BKN070
     FM021500 06005KT P6SM SCT080=



000
FTUS45 KTFX 020226 AAA
TAFGTF
TAF AMD
KGTF 020226Z 0202/0224 03010KT 5SM HZ SCT070
     FM021000 33006KT 5SM HZ BKN070
     FM021500 06005KT P6SM SCT080=



000
FTUS45 KTFX 020105 AAA
TAFLWT
TAF AMD
KLWT 020105Z 0201/0224 VRB05KT P6SM SCT090
     FM020600 VRB06KT P6SM SCT090
     FM021800 35008KT P6SM SCT070=



000
FTUS45 KTFX 012336
TAFCTB
TAF
KCTB 012336Z 0200/0224 34012KT P6SM SCT050
     FM020200 34006KT P6SM SCT070
     FM021000 33006KT P6SM SKC
     FM021500 VRB05KT P6SM SCT070=



000
FTUS45 KTFX 012336
TAFHVR
TAF
KHVR 012336Z 0200/0224 32012KT 6SM HZ FEW050
     FM020200 32006KT P6SM SKC
     FM021000 VRB06KT P6SM SKC
     FM021800 32008KT P6SM SCT080=



000
FTUS45 KTFX 012336
TAFHLN
TAF
KHLN 012336Z 0200/0224 35012G20KT P6SM FEW100
     FM020200 32007KT P6SM SKC
     FM020600 VRB04KT P6SM SKC
     FM021700 04006KT P6SM SCT090=



000
FTUS45 KTFX 012336
TAFBZN
TAF
KBZN 012336Z 0200/0224 34006KT P6SM FEW090
     FM020200 VRB05KT P6SM SKC
     FM021700 VRB05KT P6SM SCT080=



000
FTUS45 KTFX 012336
TAFGTF
TAF
KGTF 012336Z 0200/0224 05015G22KT 6SM HZ FEW100
     FM020300 04010KT P6SM SCT070
     FM021000 33006KT P6SM BKN070
     FM021500 06005KT P6SM SCT080=



000
FTUS45 KTFX 012336
TAFCTB
TAF
KCTB 012336Z 0200/0224 34012KT P6SM SCT050
     FM020200 34006KT P6SM SCT070
     FM021000 33006KT P6SM SKC
     FM021500 VRB05KT P6SM SCT070=



000
FTUS45 KTFX 012336
TAFHVR
TAF
KHVR 012336Z 0200/0224 32012KT 6SM HZ FEW050
     FM020200 32006KT P6SM SKC
     FM021000 VRB06KT P6SM SKC
     FM021800 32008KT P6SM SCT080=



000
FTUS45 KTFX 012336
TAFLWT
TAF
KLWT 012336Z 0200/0224 01012G20KT 6SM HZ FEW100
     FM020300 VRB05KT P6SM SKC
     FM020600 VRB06KT P6SM SCT100
     FM021800 35008KT P6SM SCT070=



000
FTUS45 KTFX 012336
TAFHLN
TAF
KHLN 012336Z 0200/0224 35012G20KT P6SM FEW100
     FM020200 32007KT P6SM SKC
     FM020600 VRB04KT P6SM SKC
     FM021700 04006KT P6SM SCT090=



000
FTUS45 KTFX 012336
TAFGTF
TAF
KGTF 012336Z 0200/0224 05015G22KT 6SM HZ FEW100
     FM020300 04010KT P6SM SCT070
     FM021000 33006KT P6SM BKN070
     FM021500 06005KT P6SM SCT080=



000
FTUS45 KTFX 012336
TAFLWT
TAF
KLWT 012336Z 0200/0224 01012G20KT 6SM HZ FEW100
     FM020300 VRB05KT P6SM SKC
     FM020600 VRB06KT P6SM SCT100
     FM021800 35008KT P6SM SCT070=



000
FTUS45 KTFX 012336
TAFBZN
TAF
KBZN 012336Z 0200/0224 34006KT P6SM FEW090
     FM020200 VRB05KT P6SM SKC
     FM021700 VRB05KT P6SM SCT080=



000
FTUS45 KTFX 012232 AAA
TAFBZN
TAF AMD
KBZN 012232Z 0123/0218 32012G20KT P6SM FEW100
     FM020200 VRB06KT P6SM SKC=



000
FTUS45 KTFX 012232 AAA
TAFBZN
TAF AMD
KBZN 012232Z 0123/0218 32012G20KT P6SM FEW100
     FM020200 VRB06KT P6SM SKC=



000
FTUS45 KTFX 012209 AAA
TAFLWT
TAF AMD
KLWT 012209Z 0122/0218 01006KT P6SM VCSH BKN100
      TEMPO 0122/0123 VRB20G30KT
     FM020000 01006KT P6SM SCT150
     FM021500 32006KT P6SM SCT150=



000
FTUS45 KTFX 012205 AAA
TAFGTF
TAF AMD
KGTF 012205Z 0122/0218 04015G25KT 6SM HZ SCT090
     FM020100 01010KT P6SM SCT150=



000
FTUS45 KTFX 012141 AAA
TAFHVR
TAF AMD
KHVR 012141Z 0122/0218 33010KT P6SM SCT080
     FM020900 24006KT P6SM SCT150=



000
FTUS45 KTFX 012125 AAA
TAFCTB
TAF AMD
KCTB 012125Z 0121/0218 35012G20KT P6SM SCT050
     FM020300 36006KT P6SM SCT050 BKN120=



000
FTUS45 KTFX 011733
TAFLWT
TAF
KLWT 011733Z 0118/0218 01006KT P6SM SCT100
     FM020100 01006KT P6SM BKN150
     FM021500 32006KT P6SM SCT150=



000
FTUS45 KTFX 011733
TAFBZN
TAF
KBZN 011733Z 0118/0218 VRB06KT P6SM SKC
     FM012100 34006KT P6SM SCT120=



000
FTUS45 KTFX 011733
TAFGTF
TAF
KGTF 011733Z 0118/0218 36006KT P6SM SCT090
     FM020100 01010KT P6SM BKN150=



000
FTUS45 KTFX 011733
TAFHLN
TAF
KHLN 011733Z 0118/0218 04009KT P6SM SKC
     FM012000 32010G18KT P6SM SCT090
     FM020100 32008KT P6SM SKC
     FM020900 28006KT P6SM SCT120=



000
FTUS45 KTFX 011733
TAFCTB
TAF
KCTB 011733Z 0118/0218 35010G20KT 3SM HZ VCTS SCT025 SCT070CB
      OVC090
      TEMPO 0121/0201 -TSRA BKN050CB
     FM020300 36006KT P6SM SCT050 BKN120=



000
FTUS45 KTFX 011733
TAFHVR
TAF
KHVR 011733Z 0118/0218 VRB06KT 2SM HZ VCTS SCT090CB BKN150
     FM011900 01006KT 5SM HZ SCT090 BKN150
      TEMPO 0119/0123 VRB25G40KT -TSRA BKN050CB
     FM020200 33010KT P6SM SCT080 BKN200
     FM020900 24006KT P6SM SCT150=



000
FTUS45 KTFX 011633 AAB
TAFCTB
TAF AMD
KCTB 011633Z 0117/0212 36009KT 2SM HZ SCT080
     FM011900 01009KT P6SM VCTS SCT050CB BKN090
      TEMPO 0121/0201 -TSRA BKN050CB
     FM020300 04009KT P6SM SCT050 BKN120=



000
FTUS45 KTFX 011448 AAA
TAFCTB
TAF AMD
KCTB 011448Z 0115/0212 35009KT 2SM HZ SCT120
     FM011600 35009KT P6SM BKN090
     FM011900 01009KT P6SM VCTS SCT050CB BKN090
      TEMPO 0121/0201 -TSRA BKN050CB
     FM020300 04009KT P6SM SCT050 BKN120=



000
FTUS45 KTFX 011448 AAA
TAFCTB
TAF AMD
KCTB 011448Z 0115/0212 35009KT 2SM HZ SCT120
     FM011600 35009KT P6SM BKN090
     FM011900 01009KT P6SM VCTS SCT050CB BKN090
      TEMPO 0121/0201 -TSRA BKN050CB
     FM020300 04009KT P6SM SCT050 BKN120=



000
FTUS45 KTFX 011446 AAA
TAFHVR
TAF AMD
KHVR 011446Z 0115/0212 VRB06KT 2SM HZ FEW050 SCT120
      TEMPO 0115/0117 VRB15G35KT -TSRA BKN080CB
     FM011900 31012KT P6SM VCTS SCT050CB BKN080
      TEMPO 0119/0123 VRB25G35KT -TSRA BKN050CB
     FM020200 34012KT P6SM SCT080 BKN200=



000
FTUS45 KTFX 011446 AAA
TAFHVR
TAF AMD
KHVR 011446Z 0115/0212 VRB06KT 2SM HZ FEW050 SCT120
      TEMPO 0115/0117 VRB15G35KT -TSRA BKN080CB
     FM011900 31012KT P6SM VCTS SCT050CB BKN080
      TEMPO 0119/0123 VRB25G35KT -TSRA BKN050CB
     FM020200 34012KT P6SM SCT080 BKN200=



000
FTUS45 KTFX 011120
TAFBZN
TAF
KBZN 011120Z 0112/0212 VRB06KT P6SM SCT120
     FM012000 30012KT P6SM FEW090
     FM020300 VRB06KT P6SM SCT120=



000
FTUS45 KTFX 011120
TAFHLN
TAF
KHLN 011120Z 0112/0212 VRB06KT P6SM FEW120
     FM011800 30014KT P6SM FEW100
     FM020300 VRB06KT P6SM SCT120=



000
FTUS45 KTFX 011120
TAFLWT
TAF
KLWT 011120Z 0112/0212 VRB06KT P6SM SKC
     FM011700 30011KT P6SM SCT080
     FM012000 34015KT P6SM BKN080
     FM020200 04006KT P6SM SCT080=



000
FTUS45 KTFX 011120
TAFHVR
TAF
KHVR 011120Z 0112/0212 VRB06KT 2SM HZ FEW050 SCT120
     FM011600 31008KT P6SM VCSH SCT050 BKN080
     FM011900 31012KT P6SM VCTS SCT050CB BKN080
      TEMPO 0119/0123 VRB25G35KT -TSRA BKN050CB
     FM020200 34012KT P6SM SCT080 BKN200=



000
FTUS45 KTFX 011120
TAFCTB
TAF
KCTB 011120Z 0112/0212 VRB06KT 4SM HZ SCT090
     FM011600 32009KT P6SM BKN090
     FM011900 01009KT P6SM VCTS SCT050CB BKN090
      TEMPO 0121/0201 -TSRA BKN050CB
     FM020300 04009KT P6SM SCT050 BKN120=



000
FTUS45 KTFX 011120
TAFBZN
TAF
KBZN 011120Z 0112/0212 VRB06KT P6SM SCT120
     FM012000 30012KT P6SM FEW090
     FM020300 VRB06KT P6SM SCT120=



000
FTUS45 KTFX 011120
TAFLWT
TAF
KLWT 011120Z 0112/0212 VRB06KT P6SM SKC
     FM011700 30011KT P6SM SCT080
     FM012000 34015KT P6SM BKN080
     FM020200 04006KT P6SM SCT080=



000
FTUS45 KTFX 011120
TAFHLN
TAF
KHLN 011120Z 0112/0212 VRB06KT P6SM FEW120
     FM011800 30014KT P6SM FEW100
     FM020300 VRB06KT P6SM SCT120=



000
FTUS45 KTFX 011120
TAFHVR
TAF
KHVR 011120Z 0112/0212 VRB06KT 2SM HZ FEW050 SCT120
     FM011600 31008KT P6SM VCSH SCT050 BKN080
     FM011900 31012KT P6SM VCTS SCT050CB BKN080
      TEMPO 0119/0123 VRB25G35KT -TSRA BKN050CB
     FM020200 34012KT P6SM SCT080 BKN200=



000
FTUS45 KTFX 011120
TAFCTB
TAF
KCTB 011120Z 0112/0212 VRB06KT 4SM HZ SCT090
     FM011600 32009KT P6SM BKN090
     FM011900 01009KT P6SM VCTS SCT050CB BKN090
      TEMPO 0121/0201 -TSRA BKN050CB
     FM020300 04009KT P6SM SCT050 BKN120=



000
FTUS45 KTFX 011120
TAFGTF
TAF
KGTF 011120Z 0112/0212 VRB06KT 6SM HZ SCT120
     FM011800 30012KT P6SM SCT080 BKN150
     FM020100 03009KT P6SM SCT150=



000
FTUS45 KTFX 011120
TAFGTF
TAF
KGTF 011120Z 0112/0212 VRB06KT 6SM HZ SCT120
     FM011800 30012KT P6SM SCT080 BKN150
     FM020100 03009KT P6SM SCT150=



    US Dept of Commerce
    National Oceanic and Atmospheric Administration
    National Weather Service
    1325 East West Highway
    Silver Spring, MD 20910
    Page Author: NWS Internet Services Team
Disclaimer
Information Quality
Credits
Glossary
Privacy Policy
Freedom of Information Act (FOIA)
About Us
Career Opportunities